Time;durP1;ratioP1;P1;durP2;ratioP2;P2;SDS_P1;SDS_P2;PMS_P1;PMS_P2;Temp;Humidity;BMP_temperature;BMP_pressure;BME280_temperature;BME280_humidity;BME280_pressure;Samples;Min_cycle;Max_cycle;Signal;HPM_P1;HPM_P2
2023/09/23 00:00:55;;;;;;;2.10;1.10;;;;;;;19.53;60.63;100685.41;4986413;28;20082;-58
2023/09/23 00:03:22;;;;;;;0.93;0.68;;;;;;;19.52;60.54;100689.97;4990516;28;20030;-58
2023/09/23 00:05:48;;;;;;;0.68;0.68;;;;;;;19.52;60.35;100691.84;4990753;28;20050;-58
2023/09/23 00:08:13;;;;;;;0.70;0.70;;;;;;;19.51;60.31;100691.00;4994806;28;20502;-58
2023/09/23 00:10:38;;;;;;;0.93;0.85;;;;;;;19.50;60.11;100686.59;4987679;28;20029;-58
2023/09/23 00:13:04;;;;;;;0.60;0.60;;;;;;;19.50;60.44;100692.00;4991451;28;20041;-58
2023/09/23 00:15:30;;;;;;;1.08;0.77;;;;;;;19.50;60.47;100692.00;4988867;28;20547;-58
2023/09/23 00:17:56;;;;;;;1.00;0.90;;;;;;;19.49;60.57;100693.00;4983243;28;20022;-58
2023/09/23 00:20:22;;;;;;;0.95;0.90;;;;;;;19.49;60.21;100687.59;4997859;28;20041;-58
2023/09/23 00:22:48;;;;;;;1.30;1.00;;;;;;;19.48;59.93;100691.31;4985582;28;20094;-58
2023/09/23 00:25:16;;;;;;;0.80;0.80;;;;;;;19.48;60.12;100685.91;4990455;28;20070;-58
2023/09/23 00:27:41;;;;;;;1.00;0.90;;;;;;;19.49;60.26;100689.47;4989009;28;20030;-58
2023/09/23 00:30:09;;;;;;;0.70;0.70;;;;;;;19.47;60.25;100696.88;4986505;28;20397;-58
2023/09/23 00:32:34;;;;;;;0.77;0.77;;;;;;;19.47;60.11;100704.97;4988727;28;20026;-58
2023/09/23 00:35:00;;;;;;;1.10;1.00;;;;;;;19.47;60.23;100703.13;4995302;28;20033;-58
2023/09/23 00:37:26;;;;;;;1.13;1.00;;;;;;;19.46;60.19;100704.13;4984645;28;20389;-58
2023/09/23 00:39:51;;;;;;;1.20;0.93;;;;;;;19.45;60.08;100707.81;4988100;28;20042;-58
2023/09/23 00:42:21;;;;;;;1.15;1.08;;;;;;;19.45;59.90;100710.53;4989279;28;20037;-58
2023/09/23 00:44:46;;;;;;;0.90;0.90;;;;;;;19.45;60.00;100710.53;4989287;28;20038;-58
2023/09/23 00:47:15;;;;;;;1.27;1.10;;;;;;;19.44;60.28;100716.94;4984540;28;20569;-58
2023/09/23 00:49:44;;;;;;;1.77;0.90;;;;;;;19.44;59.91;100719.66;4991341;28;20034;-58
2023/09/23 00:52:14;;;;;;;1.10;1.00;;;;;;;19.43;60.18;100725.22;4989363;28;20095;-58
2023/09/23 00:54:41;;;;;;;1.52;1.10;;;;;;;19.43;59.75;100717.94;4989834;28;20365;-58
2023/09/23 00:57:07;;;;;;;1.00;1.00;;;;;;;19.42;60.20;100718.97;4987256;28;20102;-58
2023/09/23 00:59:35;;;;;;;1.38;0.88;;;;;;;19.42;60.03;100721.66;4989164;28;20400;-58
2023/09/23 01:02:04;;;;;;;1.65;1.20;;;;;;;19.42;59.89;100715.41;4989639;28;20480;-58
2023/09/23 01:04:30;;;;;;;1.15;0.85;;;;;;;19.43;59.83;100725.22;4986937;28;20507;-58
2023/09/23 01:06:56;;;;;;;1.00;1.00;;;;;;;19.41;59.90;100714.56;4993968;28;20113;-58
2023/09/23 01:09:22;;;;;;;0.90;0.80;;;;;;;19.41;59.98;100719.97;4983659;28;20042;-58
2023/09/23 01:11:50;;;;;;;1.27;1.17;;;;;;;19.40;60.09;100720.97;4990994;28;20427;-58
2023/09/23 01:14:21;;;;;;;1.15;1.05;;;;;;;19.41;59.87;100721.81;4987729;28;20030;-58
2023/09/23 01:16:51;;;;;;;1.05;1.02;;;;;;;19.39;59.60;100724.66;4987082;28;20037;-58
2023/09/23 01:19:16;;;;;;;0.88;0.75;;;;;;;19.41;59.88;100729.91;4993375;28;20034;-58
2023/09/23 01:21:42;;;;;;;0.77;0.77;;;;;;;19.40;59.51;100734.47;4984263;28;20037;-58
2023/09/23 01:24:07;;;;;;;1.20;1.10;;;;;;;19.39;59.72;100727.38;4988205;28;20094;-58
2023/09/23 01:26:34;;;;;;;1.15;1.05;;;;;;;19.39;59.76;100729.22;4981956;28;20034;-58
2023/09/23 01:29:00;;;;;;;1.55;1.10;;;;;;;19.38;59.96;100735.63;4982964;28;20038;-58
2023/09/23 01:31:29;;;;;;;1.90;1.10;;;;;;;19.37;59.73;100740.19;4991461;28;20038;-58
2023/09/23 01:33:55;;;;;;;1.33;0.95;;;;;;;19.38;59.93;100738.31;4988408;28;20444;-58
2023/09/23 01:36:21;;;;;;;1.65;1.10;;;;;;;19.37;59.87;100742.88;4988242;28;20091;-58
2023/09/23 01:38:48;;;;;;;1.50;1.40;;;;;;;19.37;59.71;100739.34;4988586;28;20033;-58
2023/09/23 01:41:15;;;;;;;1.48;1.00;;;;;;;19.36;59.48;100741.19;4989609;28;20535;-58
2023/09/23 01:43:40;;;;;;;1.35;1.10;;;;;;;19.36;59.36;100749.28;4988681;28;20074;-58
2023/09/23 01:46:06;;;;;;;1.63;1.20;;;;;;;19.36;59.57;100748.44;4988837;28;20066;-58
2023/09/23 01:48:32;;;;;;;0.90;0.90;;;;;;;19.35;59.69;100750.28;4987325;28;20049;-58
2023/09/23 01:50:58;;;;;;;1.33;1.00;;;;;;;19.35;59.87;100750.28;4982402;28;20038;-58
2023/09/23 01:53:25;;;;;;;1.25;1.15;;;;;;;19.34;59.72;100738.66;4990224;28;20038;-58
2023/09/23 01:55:51;;;;;;;1.58;1.13;;;;;;;19.34;59.56;100745.88;4984558;28;20034;-58
2023/09/23 01:58:16;;;;;;;1.48;1.10;;;;;;;19.33;59.67;100755.00;4983298;28;20027;-58
2023/09/23 02:00:42;;;;;;;1.45;1.10;;;;;;;19.34;59.26;100751.28;4992707;28;20034;-58
2023/09/23 02:03:07;;;;;;;0.98;0.80;;;;;;;19.34;59.39;100756.69;4983602;28;20377;-58
2023/09/23 02:05:32;;;;;;;1.48;1.00;;;;;;;19.34;59.40;100757.56;4993225;28;20081;-58
2023/09/23 02:07:58;;;;;;;1.95;1.20;;;;;;;19.33;59.51;100757.72;4984806;28;20035;-58
2023/09/23 02:10:26;;;;;;;1.33;0.93;;;;;;;19.33;59.82;100763.09;4988276;28;20042;-58
2023/09/23 02:12:52;;;;;;;3.33;0.85;;;;;;;19.32;59.65;100772.19;4991435;28;20033;-58
2023/09/23 02:15:18;;;;;;;1.50;1.20;;;;;;;19.31;59.67;100776.75;4983835;28;20034;-58
2023/09/23 02:17:44;;;;;;;1.95;0.90;;;;;;;19.32;59.68;100783.00;4984982;28;20117;-58
2023/09/23 02:20:21;;;;;;;1.95;0.98;;;;;;;19.30;59.27;100775.03;4986419;28;20031;-58
2023/09/23 02:22:48;;;;;;;5.03;1.50;;;;;;;19.30;59.79;100776.91;4986897;28;20041;-58
2023/09/23 02:25:15;;;;;;;1.23;0.90;;;;;;;19.31;59.50;100775.91;4985404;28;20034;-58
2023/09/23 02:27:41;;;;;;;1.13;0.80;;;;;;;19.30;59.36;100775.03;4992873;28;20128;-58
2023/09/23 02:30:09;;;;;;;1.15;1.00;;;;;;;19.30;59.31;100768.81;4986686;28;20448;-58
2023/09/23 02:32:38;;;;;;;0.90;0.90;;;;;;;19.29;59.60;100781.47;4986990;28;20400;-58
2023/09/23 02:35:05;;;;;;;0.95;0.68;;;;;;;19.29;59.36;100789.56;4985702;28;20037;-58
2023/09/23 02:37:30;;;;;;;2.03;1.00;;;;;;;19.30;59.52;100795.81;4991375;28;20076;-58
2023/09/23 02:39:55;;;;;;;1.63;0.93;;;;;;;19.30;59.43;100798.50;4988395;28;20058;-58
2023/09/23 02:42:21;;;;;;;1.88;1.00;;;;;;;19.29;59.60;100797.66;4981206;28;20034;-58
2023/09/23 02:44:47;;;;;;;2.75;0.90;;;;;;;19.29;59.43;100794.13;4993799;28;20477;-58
2023/09/23 02:47:15;;;;;;;0.93;0.93;;;;;;;19.28;59.34;100797.81;4984750;28;20062;-58
2023/09/23 02:49:40;;;;;;;1.08;0.90;;;;;;;19.28;59.42;100808.63;4982932;28;20461;-58
2023/09/23 02:52:06;;;;;;;1.60;1.23;;;;;;;19.27;59.33;100807.78;4989740;28;20109;-58
2023/09/23 02:54:31;;;;;;;1.17;0.90;;;;;;;19.27;59.38;100807.78;4985474;28;20424;-58
2023/09/23 02:56:57;;;;;;;0.90;0.85;;;;;;;19.27;59.51;100812.34;4990116;28;20030;-58
2023/09/23 02:59:26;;;;;;;0.90;0.90;;;;;;;19.28;59.47;100814.00;4985243;28;20038;-58
2023/09/23 03:01:53;;;;;;;0.80;0.80;;;;;;;19.26;59.56;100816.88;4986727;28;20035;-58
2023/09/23 03:04:23;;;;;;;2.05;0.90;;;;;;;19.26;59.32;100810.63;4987391;28;20070;-58
2023/09/23 03:07:01;;;;;;;1.30;0.82;;;;;;;19.26;59.11;100816.03;4985665;28;20050;-58
2023/09/23 03:09:32;;;;;;;1.10;0.90;;;;;;;19.25;59.17;100815.19;4988139;28;20116;-58
2023/09/23 03:12:00;;;;;;;0.80;0.80;;;;;;;19.25;59.22;100819.75;4983104;28;20361;-58
2023/09/23 03:14:36;;;;;;;1.10;0.95;;;;;;;19.25;59.62;100822.44;4986658;28;20428;-58
2023/09/23 03:17:03;;;;;;;1.20;0.80;;;;;;;19.24;59.47;100828.84;4987120;28;20041;-58
2023/09/23 03:19:28;;;;;;;1.60;0.82;;;;;;;19.24;58.94;100821.56;4985088;28;20039;-59
2023/09/23 03:21:56;;;;;;;1.10;1.00;;;;;;;19.24;59.18;100818.03;4992075;28;20026;-58
2023/09/23 03:24:22;;;;;;;0.85;0.80;;;;;;;19.23;59.65;100822.59;4987091;28;20381;-58
2023/09/23 03:26:50;;;;;;;1.20;0.90;;;;;;;19.23;59.20;100824.41;4982488;28;20039;-58
2023/09/23 03:29:18;;;;;;;1.45;0.93;;;;;;;19.22;59.40;100830.84;4993012;28;20026;-59
2023/09/23 03:31:44;;;;;;;1.38;0.80;;;;;;;19.23;59.34;100840.63;4983343;28;20056;-58
2023/09/23 03:34:13;;;;;;;2.75;1.05;;;;;;;19.22;59.24;100841.63;4983243;28;20057;-58
2023/09/23 03:36:39;;;;;;;1.17;0.63;;;;;;;19.21;59.18;100835.41;4990144;28;20038;-58
2023/09/23 03:39:04;;;;;;;1.95;0.90;;;;;;;19.21;59.14;100839.91;4989724;28;20041;-58
2023/09/23 03:41:30;;;;;;;0.80;0.80;;;;;;;19.21;59.08;100846.19;4990809;28;20030;-58
2023/09/23 03:43:56;;;;;;;0.93;0.80;;;;;;;19.21;59.05;100842.63;4992428;28;20030;-58
2023/09/23 03:46:21;;;;;;;1.55;0.90;;;;;;;19.21;59.33;100840.78;4991843;28;20495;-58
2023/09/23 03:48:46;;;;;;;1.30;1.02;;;;;;;19.21;59.05;100839.91;4986793;28;20031;-58
2023/09/23 03:51:15;;;;;;;1.05;0.80;;;;;;;19.20;59.10;100849.88;4992094;28;20128;-58
2023/09/23 03:53:41;;;;;;;1.88;1.02;;;;;;;19.21;59.28;100850.72;4989378;28;20037;-58
2023/09/23 03:56:07;;;;;;;1.77;0.75;;;;;;;19.20;59.17;100855.28;4992997;28;20042;-58
2023/09/23 03:58:32;;;;;;;1.35;0.90;;;;;;;19.19;59.07;100852.72;4990831;28;20379;-58
2023/09/23 04:01:05;;;;;;;2.20;0.88;;;;;;;19.19;59.01;100852.72;4990883;28;20034;-58
2023/09/23 04:03:34;;;;;;;1.55;0.85;;;;;;;19.19;59.07;100855.44;4989578;28;20046;-58
2023/09/23 04:06:00;;;;;;;0.98;0.73;;;;;;;19.18;59.25;100851.88;4984921;28;20130;-59
2023/09/23 04:08:26;;;;;;;1.27;0.80;;;;;;;19.18;59.30;100859.16;4996992;28;20506;-58
2023/09/23 04:10:51;;;;;;;1.83;0.80;;;;;;;19.18;59.25;100856.44;4986159;28;20114;-58
2023/09/23 04:13:16;;;;;;;1.00;0.90;;;;;;;19.17;58.89;100857.44;4986990;28;20375;-58
2023/09/23 04:15:42;;;;;;;2.03;0.80;;;;;;;19.17;59.00;100860.97;4992437;28;20031;-58
2023/09/23 04:18:09;;;;;;;1.50;0.77;;;;;;;19.17;59.01;100869.06;4985648;28;20113;-58
2023/09/23 04:20:35;;;;;;;0.77;0.77;;;;;;;19.16;59.35;100863.84;4990684;28;20031;-58
2023/09/23 04:23:01;;;;;;;1.05;0.70;;;;;;;19.16;59.07;100869.25;4987351;28;20031;-58
2023/09/23 04:25:26;;;;;;;2.42;0.90;;;;;;;19.15;59.41;100868.38;4990768;28;20089;-58
2023/09/23 04:27:53;;;;;;;1.00;0.77;;;;;;;19.16;59.01;100877.34;4991362;28;20081;-58
2023/09/23 04:30:18;;;;;;;2.47;0.95;;;;;;;19.14;59.27;100883.72;4988478;28;20026;-58
2023/09/23 04:32:44;;;;;;;0.80;0.73;;;;;;;19.14;59.04;100889.13;4986839;28;20472;-58
2023/09/23 04:35:16;;;;;;;1.38;0.70;;;;;;;19.14;58.90;100894.53;4985549;28;20037;-58
2023/09/23 04:37:42;;;;;;;1.42;0.85;;;;;;;19.13;59.32;100895.56;4988910;28;20032;-58
2023/09/23 04:40:10;;;;;;;1.10;0.80;;;;;;;19.14;59.08;100905.31;4989477;28;20034;-58
2023/09/23 04:42:40;;;;;;;1.05;0.95;;;;;;;19.13;59.14;100902.78;4991261;28;20051;-58
2023/09/23 04:45:06;;;;;;;1.13;0.77;;;;;;;19.13;58.95;100903.66;4988979;28;20491;-58
2023/09/23 04:47:32;;;;;;;1.27;0.75;;;;;;;19.13;59.00;100906.34;4992038;28;20022;-58
2023/09/23 04:50:00;;;;;;;0.80;0.73;;;;;;;19.12;59.16;100907.31;4988798;28;20034;-58
2023/09/23 04:52:28;;;;;;;1.15;0.80;;;;;;;19.12;59.15;100907.31;4983828;28;20058;-58
2023/09/23 04:54:54;;;;;;;1.15;0.77;;;;;;;19.11;59.04;100911.03;4995042;28;20034;-58
2023/09/23 04:57:21;;;;;;;0.98;0.82;;;;;;;19.12;59.18;100906.50;4986924;28;20034;-58
2023/09/23 04:59:46;;;;;;;0.80;0.80;;;;;;;19.11;58.99;100907.47;4983964;28;20528;-58
2023/09/23 05:02:18;;;;;;;1.70;0.85;;;;;;;19.11;58.96;100918.28;4988612;28;20109;-58
2023/09/23 05:04:46;;;;;;;;;;;;;;;19.20;59.11;100913.81;4986905;28;20026;-58
2023/09/23 05:07:15;;;;;;;0.63;0.63;;;;;;;19.11;58.82;100920.97;4991805;28;20364;-58
2023/09/23 05:09:41;;;;;;;1.00;0.80;;;;;;;19.10;58.86;100930.94;4984751;28;20045;-58
2023/09/23 05:12:09;;;;;;;1.02;0.70;;;;;;;19.09;59.07;100928.38;4991505;28;20104;-58
2023/09/23 05:14:35;;;;;;;3.58;0.90;;;;;;;19.09;58.86;100940.00;4988786;28;20031;-58
2023/09/23 05:17:04;;;;;;;1.90;0.80;;;;;;;19.09;59.06;100945.41;4988243;28;20122;-58
2023/09/23 05:19:31;;;;;;;0.73;0.73;;;;;;;19.08;59.05;100949.13;4985832;28;20038;-58
2023/09/23 05:21:57;;;;;;;1.10;0.73;;;;;;;19.08;58.98;100951.81;4991639;28;20421;-58
2023/09/23 05:24:22;;;;;;;1.05;0.68;;;;;;;19.08;58.72;100959.91;4988722;28;20128;-58
2023/09/23 05:26:49;;;;;;;1.65;0.95;;;;;;;19.08;58.68;100957.22;4989318;28;20089;-58
2023/09/23 05:29:15;;;;;;;1.50;0.80;;;;;;;19.08;58.89;100969.88;4991526;28;20559;-58
2023/09/23 05:31:41;;;;;;;1.48;0.90;;;;;;;19.06;58.80;100970.00;4989240;28;20042;-58
2023/09/23 05:34:07;;;;;;;1.05;0.90;;;;;;;19.07;59.02;100979.78;4987856;28;20120;-58
2023/09/23 05:36:32;;;;;;;0.88;0.70;;;;;;;19.07;58.86;100976.25;4987481;28;20023;-58
2023/09/23 05:38:57;;;;;;;1.05;0.60;;;;;;;19.08;58.88;100984.22;4987803;28;20045;-58
2023/09/23 05:41:24;;;;;;;1.52;0.80;;;;;;;19.07;58.83;100984.34;4989851;28;20500;-58
2023/09/23 05:43:53;;;;;;;1.02;0.70;;;;;;;19.07;58.79;100987.06;4980042;28;20117;-58
2023/09/23 05:46:21;;;;;;;0.90;0.80;;;;;;;19.06;58.71;100991.59;4992579;28;20023;-58
2023/09/23 05:48:49;;;;;;;1.45;0.90;;;;;;;19.06;58.96;100993.47;4983890;28;20031;-58
2023/09/23 05:51:15;;;;;;;0.70;0.60;;;;;;;19.05;59.00;100998.00;4991109;28;20026;-58
2023/09/23 05:53:42;;;;;;;0.90;0.70;;;;;;;19.05;59.25;100999.84;4987323;28;20042;-58
2023/09/23 05:56:07;;;;;;;1.33;0.77;;;;;;;19.05;58.99;101011.47;4985995;28;20031;-58
2023/09/23 05:58:32;;;;;;;0.70;0.45;;;;;;;19.05;58.94;101008.78;4994267;28;20102;-58
2023/09/23 06:00:58;;;;;;;1.42;0.65;;;;;;;19.06;58.92;101015.91;4982377;28;20492;-58
2023/09/23 06:03:23;;;;;;;2.40;1.05;;;;;;;19.05;58.63;101019.56;4986542;28;20472;-58
2023/09/23 06:05:49;;;;;;;1.98;0.80;;;;;;;19.06;58.77;101023.16;4988541;28;20062;-58
2023/09/23 06:08:14;;;;;;;0.70;0.70;;;;;;;19.05;58.70;101024.97;4986459;28;20523;-58
2023/09/23 06:10:39;;;;;;;1.00;0.70;;;;;;;19.05;59.00;101038.47;4982274;28;20035;-58
2023/09/23 06:13:09;;;;;;;2.90;1.20;;;;;;;19.05;58.83;101038.47;4986394;28;20038;-58
2023/09/23 06:15:35;;;;;;;0.85;0.75;;;;;;;19.06;58.73;101048.28;4988523;28;20117;-58
2023/09/23 06:18:00;;;;;;;1.35;0.90;;;;;;;19.07;58.68;101054.53;4989760;28;20034;-58
2023/09/23 06:20:26;;;;;;;1.80;0.90;;;;;;;19.08;58.73;101064.34;4986797;28;20083;-58
2023/09/23 06:22:51;;;;;;;1.40;0.60;;;;;;;19.07;58.78;101059.91;4985251;28;20022;-58
2023/09/23 06:25:17;;;;;;;1.45;0.98;;;;;;;19.07;58.83;101063.47;4988351;28;20040;-58
2023/09/23 06:27:45;;;;;;;1.48;0.80;;;;;;;19.08;58.76;101072.44;4981012;28;20432;-58
2023/09/23 06:30:15;;;;;;;2.03;0.90;;;;;;;19.08;58.88;101067.88;4987507;28;20461;-58
2023/09/23 06:32:41;;;;;;;1.48;0.70;;;;;;;19.07;58.73;101066.16;4982763;28;20038;-58
2023/09/23 06:35:07;;;;;;;3.20;0.88;;;;;;;19.08;58.93;101083.22;4985849;28;20555;-58
2023/09/23 06:37:33;;;;;;;1.38;0.98;;;;;;;19.08;58.73;101083.22;4991681;28;20041;-58
2023/09/23 06:39:58;;;;;;;1.20;0.82;;;;;;;19.08;59.27;101086.75;4987785;28;20073;-58
2023/09/23 06:42:24;;;;;;;1.38;0.90;;;;;;;19.09;59.33;101093.00;4980893;28;20042;-58
2023/09/23 06:44:49;;;;;;;2.22;1.02;;;;;;;19.09;59.22;101091.16;4993499;28;20037;-58
2023/09/23 06:47:14;;;;;;;1.45;0.82;;;;;;;19.08;59.14;101094.84;4983902;28;20039;-58
2023/09/23 06:49:40;;;;;;;1.38;0.90;;;;;;;19.09;59.39;101101.94;4984275;28;20045;-58
2023/09/23 06:52:06;;;;;;;2.22;0.98;;;;;;;19.11;59.49;101104.50;4989149;28;20043;-58
2023/09/23 06:54:31;;;;;;;3.60;1.25;;;;;;;19.11;59.41;101107.19;4988037;28;20188;-58
2023/09/23 06:56:57;;;;;;;2.35;1.20;;;;;;;19.09;59.56;101110.03;4990445;28;20038;-58
2023/09/23 06:59:23;;;;;;;0.98;0.73;;;;;;;19.11;59.64;101108.06;4984828;28;20049;-58
2023/09/23 07:01:48;;;;;;;1.83;0.95;;;;;;;19.10;59.64;101119.84;4986371;28;20100;-58
2023/09/23 07:04:14;;;;;;;1.42;0.90;;;;;;;19.11;60.00;101109.91;4986955;28;20026;-58
2023/09/23 07:06:39;;;;;;;2.35;1.10;;;;;;;19.11;59.99;101120.69;4984227;28;20153;-58
2023/09/23 07:09:05;;;;;;;1.65;0.70;;;;;;;19.12;60.28;101117.00;4983031;28;20026;-58
2023/09/23 07:11:31;;;;;;;2.15;1.02;;;;;;;19.12;60.15;101130.50;4987615;28;20046;-58
2023/09/23 07:13:58;;;;;;;1.55;0.90;;;;;;;19.12;60.06;101134.06;4990398;28;20031;-58
2023/09/23 07:16:25;;;;;;;2.45;0.90;;;;;;;19.13;59.94;101135.75;4988278;28;20096;-58
2023/09/23 07:18:51;;;;;;;1.88;0.90;;;;;;;19.13;60.27;101134.91;4992036;28;20069;-58
2023/09/23 07:21:16;;;;;;;1.15;1.05;;;;;;;19.13;60.29;101141.16;4992867;28;20066;-58
2023/09/23 07:23:42;;;;;;;1.67;0.95;;;;;;;19.13;60.06;101143.88;4992317;28;20113;-58
2023/09/23 07:26:07;;;;;;;3.40;1.27;;;;;;;19.14;60.07;101147.41;4986671;28;20053;-58
2023/09/23 07:28:33;;;;;;;2.05;1.10;;;;;;;19.14;60.43;101152.81;4994506;28;20045;-58
2023/09/23 07:30:58;;;;;;;1.48;1.13;;;;;;;19.14;60.03;101156.34;4988641;28;20027;-58
2023/09/23 07:33:24;;;;;;;2.05;1.23;;;;;;;19.15;60.31;101162.59;4985746;28;20126;-58
2023/09/23 07:35:49;;;;;;;1.80;1.00;;;;;;;19.16;60.11;101176.97;4991975;28;20039;-58
2023/09/23 07:38:15;;;;;;;3.42;1.67;;;;;;;19.16;60.35;101176.97;4991318;28;20439;-58
2023/09/23 07:40:40;;;;;;;1.02;0.80;;;;;;;19.17;60.40;101168.69;4987096;28;20042;-58
2023/09/23 07:43:07;;;;;;;3.08;1.20;;;;;;;19.17;60.35;101179.47;4995540;28;20054;-58
2023/09/23 07:45:33;;;;;;;1.30;0.90;;;;;;;19.17;60.30;101186.75;4987215;28;20458;-58
2023/09/23 07:47:58;;;;;;;1.77;0.93;;;;;;;19.17;60.33;101192.13;4986995;28;20117;-58
2023/09/23 07:50:23;;;;;;;2.05;1.13;;;;;;;19.19;60.19;101198.25;4993051;28;20377;-58
2023/09/23 07:52:49;;;;;;;1.10;0.82;;;;;;;19.19;60.52;101195.53;4985475;28;20077;-58
2023/09/23 07:55:14;;;;;;;3.00;1.10;;;;;;;19.19;60.39;101195.53;4994179;28;20065;-58
2023/09/23 07:57:39;;;;;;;5.13;1.25;;;;;;;19.20;60.29;101194.56;4987200;28;20500;-58
2023/09/23 08:00:08;;;;;;;2.65;1.00;;;;;;;19.20;60.33;101203.50;4991314;28;20064;-58
2023/09/23 08:02:35;;;;;;;1.88;1.08;;;;;;;19.20;60.02;101198.09;4993340;28;20031;-58
2023/09/23 08:05:04;;;;;;;2.97;1.17;;;;;;;19.20;60.35;101210.75;4990964;28;20030;-58
2023/09/23 08:07:30;;;;;;;1.33;0.80;;;;;;;19.21;60.38;101207.03;4992905;28;20050;-58
2023/09/23 08:09:56;;;;;;;1.73;0.90;;;;;;;19.22;60.23;101214.16;4994112;28;20030;-58
2023/09/23 08:12:22;;;;;;;1.88;1.10;;;;;;;19.22;60.13;101230.34;4985426;28;20118;-58
2023/09/23 08:14:47;;;;;;;2.15;0.90;;;;;;;19.23;60.46;101227.50;4991115;28;20117;-58
2023/09/23 08:17:14;;;;;;;1.90;0.98;;;;;;;19.23;60.41;101232.91;4989075;28;20397;-58
2023/09/23 08:19:39;;;;;;;2.80;1.20;;;;;;;19.24;60.47;101234.59;4988435;28;20045;-58
2023/09/23 08:22:05;;;;;;;1.13;0.90;;;;;;;19.24;60.41;101228.34;4991057;28;20476;-58
2023/09/23 08:24:30;;;;;;;3.05;1.10;;;;;;;19.26;60.20;101235.31;4988896;28;20392;-58
2023/09/23 08:26:56;;;;;;;1.33;0.95;;;;;;;19.25;60.65;101240.88;4999152;28;20121;-58
2023/09/23 08:29:23;;;;;;;2.65;0.90;;;;;;;19.24;60.51;101242.69;4986776;28;20041;-58
2023/09/23 08:31:49;;;;;;;2.85;1.27;;;;;;;19.25;60.38;101243.56;4984067;28;20358;-58
2023/09/23 08:34:14;;;;;;;3.33;1.20;;;;;;;19.25;60.73;101246.28;4985136;28;20568;-58
2023/09/23 08:36:39;;;;;;;0.82;0.70;;;;;;;19.25;60.28;101255.22;4990120;28;20476;-58
2023/09/23 08:39:05;;;;;;;2.50;1.10;;;;;;;19.27;60.71;101261.31;4985439;28;20466;-58
2023/09/23 08:41:32;;;;;;;1.20;1.10;;;;;;;19.28;60.45;101262.16;4992678;28;20432;-58
2023/09/23 08:43:58;;;;;;;2.05;1.10;;;;;;;19.28;60.54;101268.41;4989264;28;20027;-58
2023/09/23 08:46:25;;;;;;;2.45;1.15;;;;;;;19.29;60.51;101267.44;4991377;28;20095;-58
2023/09/23 08:48:50;;;;;;;2.60;1.10;;;;;;;19.28;60.83;101275.66;4990134;28;20026;-58
2023/09/23 08:51:19;;;;;;;3.47;1.13;;;;;;;19.30;60.85;101279.06;4988605;28;20034;-58
2023/09/23 08:53:45;;;;;;;1.92;0.90;;;;;;;19.29;60.63;101282.78;4987333;28;20037;-59
2023/09/23 08:56:11;;;;;;;1.42;1.00;;;;;;;19.29;61.02;101285.47;4992007;28;20042;-58
2023/09/23 08:58:36;;;;;;;1.23;0.88;;;;;;;19.30;60.81;101293.41;4986277;28;20041;-58
2023/09/23 09:01:03;;;;;;;2.00;1.05;;;;;;;19.32;60.54;101306.78;4988821;28;20041;-57
2023/09/23 09:03:30;;;;;;;2.15;1.00;;;;;;;19.33;60.62;101305.78;4988909;28;20021;-57
2023/09/23 09:05:55;;;;;;;3.05;1.40;;;;;;;19.32;60.69;101312.19;4988732;28;20089;-58
2023/09/23 09:08:20;;;;;;;2.05;1.02;;;;;;;19.32;60.75;101306.78;4990398;28;20722;-57
2023/09/23 09:10:46;;;;;;;3.85;1.10;;;;;;;19.33;61.05;101303.09;4988487;28;20531;-58
2023/09/23 09:13:11;;;;;;;2.55;1.08;;;;;;;19.32;61.04;101313.06;4991207;28;20508;-57
2023/09/23 09:15:37;;;;;;;2.25;0.80;;;;;;;19.30;60.87;101309.59;4987157;28;20034;-57
2023/09/23 09:18:03;;;;;;;1.60;0.88;;;;;;;19.31;60.88;101315.88;4981919;28;20058;-57
2023/09/23 09:20:29;;;;;;;1.70;1.17;;;;;;;19.31;61.01;101318.59;4991954;28;20034;-57
2023/09/23 09:22:55;;;;;;;2.05;0.95;;;;;;;19.31;60.87;101321.28;4984596;28;20022;-57
2023/09/23 09:25:21;;;;;;;2.22;1.02;;;;;;;19.32;60.89;101328.38;4985237;28;20026;-57
2023/09/23 09:27:53;;;;;;;2.72;0.80;;;;;;;19.31;60.58;101340.19;4988421;28;20040;-57
2023/09/23 09:30:19;;;;;;;1.58;0.73;;;;;;;19.32;60.82;101334.66;4988136;28;20100;-57
2023/09/23 09:32:46;;;;;;;2.70;1.10;;;;;;;19.31;60.83;101342.88;4997344;28;20026;-57
2023/09/23 09:35:14;;;;;;;2.25;1.00;;;;;;;19.31;61.09;101340.19;4987444;28;20058;-57
2023/09/23 09:37:45;;;;;;;1.30;0.93;;;;;;;19.31;60.97;101342.88;4984606;28;20078;-58
2023/09/23 09:40:18;;;;;;;3.35;1.05;;;;;;;19.33;61.08;101346.28;4991899;28;20097;-57
2023/09/23 09:42:54;;;;;;;1.40;1.10;;;;;;;19.32;60.71;101347.28;4989132;28;20487;-57
2023/09/23 09:45:23;;;;;;;2.55;1.00;;;;;;;19.31;60.59;101353.69;4983891;28;20042;-57
2023/09/23 09:47:51;;;;;;;2.10;0.90;;;;;;;19.31;61.13;101359.09;4988139;28;20033;-57
2023/09/23 09:50:17;;;;;;;3.45;0.88;;;;;;;19.32;60.95;101361.66;4988013;28;20030;-58
2023/09/23 09:52:46;;;;;;;1.75;1.00;;;;;;;19.32;61.02;101367.06;4988087;28;20037;-57
2023/09/23 09:55:18;;;;;;;0.82;0.70;;;;;;;19.31;60.83;101364.50;4989374;28;20126;-58
2023/09/23 09:57:48;;;;;;;0.90;0.80;;;;;;;19.32;61.02;101360.78;4991159;28;20076;-57
2023/09/23 10:00:27;;;;;;;1.20;0.80;;;;;;;19.32;60.86;101368.88;4988192;28;20117;-57
2023/09/23 10:02:58;;;;;;;1.75;1.05;;;;;;;19.32;60.88;101366.19;4989068;28;20061;-57
2023/09/23 10:05:31;;;;;;;3.78;1.20;;;;;;;19.33;60.82;101365.19;4991733;28;20469;-57
2023/09/23 10:07:56;;;;;;;1.98;1.00;;;;;;;19.32;60.66;101372.44;4986748;28;20059;-58
2023/09/23 10:10:32;;;;;;;1.15;0.80;;;;;;;19.33;61.08;101362.50;4983601;28;20057;-57
2023/09/23 10:13:06;;;;;;;1.30;0.80;;;;;;;19.33;60.95;101371.44;4985810;28;20400;-57
2023/09/23 10:15:36;;;;;;;2.03;0.90;;;;;;;19.33;60.94;101367.91;4988461;28;20093;-57
2023/09/23 10:18:03;;;;;;;0.95;0.70;;;;;;;19.34;61.04;101380.38;4990454;28;20045;-58
2023/09/23 10:20:33;;;;;;;2.80;0.93;;;;;;;19.33;60.76;101378.69;4988177;28;20365;-59
2023/09/23 10:22:59;;;;;;;1.10;0.88;;;;;;;19.35;60.80;101376.69;4986713;28;20065;-58
2023/09/23 10:25:36;;;;;;;1.92;1.08;;;;;;;19.37;60.66;101377.41;4988469;28;20076;-57
2023/09/23 10:28:04;;;;;;;1.45;0.93;;;;;;;19.35;61.00;101379.41;4983021;28;20425;-57
2023/09/23 10:30:29;;;;;;;1.27;0.88;;;;;;;19.36;60.98;101383.78;4990183;28;20057;-57
2023/09/23 10:32:55;;;;;;;1.17;0.85;;;;;;;19.38;60.92;101389.94;4984743;28;20065;-58
2023/09/23 10:35:24;;;;;;;1.48;0.90;;;;;;;19.37;60.68;101384.66;4983591;28;20065;-57
2023/09/23 10:37:49;;;;;;;1.65;0.93;;;;;;;19.36;61.03;101386.50;4990314;28;20030;-57
2023/09/23 10:40:17;;;;;;;2.83;1.05;;;;;;;19.37;61.00;101390.91;4987345;28;20105;-57
2023/09/23 10:42:47;;;;;;;3.25;1.10;;;;;;;19.37;60.89;101390.91;4984207;28;20026;-57
2023/09/23 10:45:14;;;;;;;1.83;0.75;;;;;;;19.36;60.86;101394.59;4991914;28;20067;-57
2023/09/23 10:47:43;;;;;;;1.10;0.82;;;;;;;19.37;61.05;101404.41;4983188;28;20026;-57
2023/09/23 10:50:09;;;;;;;0.82;0.65;;;;;;;19.37;60.97;101400.88;4985705;28;20068;-57
2023/09/23 10:52:35;;;;;;;1.35;1.02;;;;;;;19.37;60.91;101407.13;4986151;28;20105;-57
2023/09/23 10:55:02;;;;;;;1.17;0.90;;;;;;;19.38;60.82;101408.84;4987596;28;20026;-58
2023/09/23 10:57:27;;;;;;;1.48;0.98;;;;;;;19.38;60.79;101408.84;4988418;28;20058;-57
2023/09/23 10:59:53;;;;;;;3.28;0.95;;;;;;;19.38;60.82;101416.94;4989113;28;20054;-57
2023/09/23 11:02:20;;;;;;;2.60;0.80;;;;;;;19.38;60.84;101419.63;4988625;28;20026;-57
2023/09/23 11:04:48;;;;;;;2.38;1.02;;;;;;;19.38;61.11;101418.75;4987903;28;20384;-58
2023/09/23 11:07:15;;;;;;;1.88;0.90;;;;;;;19.37;60.86;101426.00;4982871;28;20046;-57
2023/09/23 11:09:48;;;;;;;1.08;0.80;;;;;;;19.37;61.09;101433.28;4986717;28;20035;-57
2023/09/23 11:12:17;;;;;;;1.92;0.90;;;;;;;19.37;60.92;101433.28;4982114;28;20034;-58
2023/09/23 11:14:45;;;;;;;1.05;0.90;;;;;;;19.36;61.17;101436.94;4986223;28;20047;-58
2023/09/23 11:17:29;;;;;;;3.42;1.23;;;;;;;19.34;61.14;101432.56;4987159;28;20040;-58
2023/09/23 11:20:04;;;;;;;2.17;1.15;;;;;;;19.32;61.01;101437.25;4984865;28;20497;-56
2023/09/23 11:22:30;;;;;;;3.75;1.20;;;;;;;19.31;61.30;101440.09;4983848;28;20038;-56